createdAt,value
2022-09-24T00:01:32.766Z,12.57
2022-09-24T00:04:05.675Z,12.57
2022-09-24T00:06:40.985Z,10.67
2022-09-24T00:09:08.004Z,11.57
2022-09-24T00:11:35.423Z,10.40
2022-09-24T00:14:02.138Z,10.53
2022-09-24T00:16:31.711Z,11.77
2022-09-24T00:18:59.507Z,10.90
2022-09-24T00:21:29.575Z,10.53
2022-09-24T00:23:59.651Z,10.27
2022-09-24T00:26:45.421Z,10.00
2022-09-24T00:29:14.523Z,11.40
2022-09-24T00:31:41.219Z,10.63
2022-09-24T00:34:08.539Z,9.70
2022-09-24T00:36:35.304Z,10.77
2022-09-24T00:39:01.935Z,9.67
2022-09-24T00:41:32.039Z,9.17
2022-09-24T00:43:59.461Z,9.90
2022-09-24T00:46:48.565Z,11.30
2022-09-24T00:49:18.094Z,8.80
2022-09-24T00:51:48.791Z,9.17
2022-09-24T00:54:23.055Z,12.57
2022-09-24T00:56:51.515Z,9.83
2022-09-24T00:59:23.005Z,10.53
2022-09-24T01:01:51.794Z,10.27
2022-09-24T01:04:22.716Z,11.67
2022-09-24T01:06:50.150Z,10.33
2022-09-24T01:09:18.934Z,11.37
2022-09-24T01:12:10.781Z,11.07
2022-09-24T01:15:10.342Z,11.27
2022-09-24T01:18:06.642Z,10.27
2022-09-24T01:20:52.466Z,11.37
2022-09-24T01:23:48.988Z,9.43
2022-09-24T01:26:22.950Z,11.17
2022-09-24T01:29:00.376Z,11.07
2022-09-24T01:31:41.567Z,10.40
2022-09-24T01:34:12.288Z,11.43
2022-09-24T01:36:41.241Z,11.07
2022-09-24T01:39:08.890Z,9.60
2022-09-24T01:41:38.465Z,10.53
2022-09-24T01:44:07.793Z,11.00
2022-09-24T01:46:38.709Z,10.50
2022-09-24T01:49:07.166Z,10.47
2022-09-24T01:51:52.293Z,11.37
2022-09-24T01:54:28.378Z,10.40
2022-09-24T01:57:09.851Z,11.70
2022-09-24T01:59:41.473Z,11.67
2022-09-24T02:02:19.859Z,11.80
2022-09-24T02:04:53.615Z,12.53
2022-09-24T02:07:29.736Z,14.55
2022-09-24T02:09:56.399Z,11.37
2022-09-24T02:12:37.324Z,10.87
2022-09-24T02:15:14.662Z,13.43
2022-09-24T02:17:45.855Z,10.13
2022-09-24T02:20:16.323Z,10.73
2022-09-24T02:22:44.900Z,16.23
2022-09-24T02:25:16.313Z,10.27
2022-09-24T02:27:42.913Z,10.93
2022-09-24T02:30:10.857Z,11.40
2022-09-24T02:32:41.047Z,14.33
2022-09-24T02:35:10.768Z,11.30
2022-09-24T02:37:43.324Z,9.77
2022-09-24T02:40:13.417Z,11.37
2022-09-24T02:42:42.237Z,10.87
2022-09-24T02:45:09.745Z,10.23
2022-09-24T02:47:37.025Z,11.95
2022-09-24T02:50:03.925Z,9.97
2022-09-24T02:52:30.569Z,9.40
2022-09-24T02:54:57.186Z,10.50
2022-09-24T02:57:23.737Z,9.70
2022-09-24T02:59:50.356Z,10.43
2022-09-24T03:02:17.177Z,11.23
2022-09-24T03:04:43.836Z,11.07
2022-09-24T03:07:11.408Z,10.03
2022-09-24T03:09:37.969Z,11.20
2022-09-24T03:12:05.052Z,11.53
2022-09-24T03:14:31.691Z,11.20
2022-09-24T03:16:58.233Z,10.13
2022-09-24T03:19:24.799Z,10.40
2022-09-24T03:21:51.355Z,11.87
2022-09-24T03:24:17.899Z,11.63
2022-09-24T03:26:45.250Z,12.93
2022-09-24T03:29:11.901Z,12.40
2022-09-24T03:31:38.584Z,11.67
2022-09-24T03:34:05.194Z,11.37
2022-09-24T03:36:31.896Z,12.43
2022-09-24T03:38:58.490Z,16.50
2022-09-24T03:41:27.621Z,11.30
2022-09-24T03:43:54.725Z,12.47
2022-09-24T03:46:24.250Z,11.70
2022-09-24T03:48:50.895Z,11.73
2022-09-24T03:51:19.919Z,13.23
2022-09-24T03:53:47.252Z,13.27
2022-09-24T03:56:13.942Z,12.07
2022-09-24T03:58:41.292Z,12.93
2022-09-24T04:01:10.265Z,13.38
2022-09-24T04:03:37.736Z,12.90
2022-09-24T04:06:05.799Z,18.90
2022-09-24T04:08:32.834Z,14.60
2022-09-24T04:10:59.799Z,12.87
2022-09-24T04:13:26.589Z,15.47
2022-09-24T04:15:54.122Z,13.97
2022-09-24T04:18:21.249Z,13.87
2022-09-24T04:20:48.288Z,13.30
2022-09-24T04:23:15.269Z,14.07
2022-09-24T04:25:41.877Z,14.10
2022-09-24T04:28:10.383Z,14.70
2022-09-24T04:30:38.053Z,14.73
2022-09-24T04:33:04.696Z,13.40
2022-09-24T04:35:32.861Z,13.63
2022-09-24T04:38:00.319Z,12.90
2022-09-24T04:40:27.654Z,16.60
2022-09-24T04:42:54.400Z,12.73
2022-09-24T04:45:21.691Z,13.30
2022-09-24T04:47:56.073Z,14.50
2022-09-24T04:50:28.700Z,13.23
2022-09-24T04:52:56.162Z,14.83
2022-09-24T04:55:23.975Z,14.50
2022-09-24T04:57:50.959Z,16.70
2022-09-24T05:00:20.191Z,15.57
2022-09-24T05:02:47.194Z,14.30
2022-09-24T05:05:14.049Z,16.27
2022-09-24T05:07:41.869Z,16.93
2022-09-24T05:10:09.139Z,14.63
2022-09-24T05:12:36.245Z,15.10
2022-09-24T05:15:03.564Z,14.70
2022-09-24T05:17:30.204Z,14.00
2022-09-24T05:19:57.850Z,12.90
2022-09-24T05:22:27.330Z,14.27
2022-09-24T05:24:54.315Z,13.07
2022-09-24T05:27:21.659Z,11.87
2022-09-24T05:29:48.249Z,13.13
2022-09-24T05:32:18.494Z,13.93
2022-09-24T05:34:45.948Z,13.70
2022-09-24T05:37:14.104Z,12.63
2022-09-24T05:39:41.039Z,12.70
2022-09-24T05:42:10.527Z,16.77
2022-09-24T05:44:38.073Z,14.53
2022-09-24T05:47:04.663Z,14.33
2022-09-24T05:49:32.070Z,13.70
2022-09-24T05:51:58.944Z,11.37
2022-09-24T05:54:25.540Z,11.87
2022-09-24T05:56:52.132Z,11.53
2022-09-24T05:59:18.725Z,9.60
2022-09-24T06:01:45.365Z,9.83
2022-09-24T06:04:12.674Z,9.53
2022-09-24T06:06:39.252Z,13.40
2022-09-24T06:09:05.880Z,9.97
2022-09-24T06:11:39.958Z,9.83
2022-09-24T06:14:08.397Z,9.23
2022-09-24T06:16:35.113Z,10.67
2022-09-24T06:19:02.117Z,9.60
2022-09-24T06:21:28.931Z,11.63
2022-09-24T06:23:55.629Z,10.03
2022-09-24T06:26:22.494Z,8.90
2022-09-24T06:28:49.103Z,10.20
2022-09-24T06:31:15.755Z,9.57
2022-09-24T06:33:42.536Z,9.10
2022-09-24T06:36:09.534Z,9.63
2022-09-24T06:38:36.600Z,10.23
2022-09-24T06:41:05.301Z,11.38
2022-09-24T06:43:33.947Z,9.27
2022-09-24T06:46:01.695Z,13.33
2022-09-24T06:48:29.216Z,11.33
2022-09-24T06:50:56.451Z,18.30
2022-09-24T06:53:23.643Z,10.67
2022-09-24T06:55:50.716Z,9.47
2022-09-24T06:58:21.220Z,10.03
2022-09-24T07:01:02.741Z,8.57
2022-09-24T07:03:31.566Z,9.50
2022-09-24T07:06:01.723Z,9.23
2022-09-24T07:08:28.465Z,9.65
2022-09-24T07:10:55.505Z,9.33
2022-09-24T07:13:22.534Z,8.93
2022-09-24T07:15:54.763Z,8.90
2022-09-24T07:18:21.455Z,8.53
2022-09-24T07:20:55.448Z,10.27
2022-09-24T07:23:22.816Z,10.00
2022-09-24T07:25:50.380Z,9.07
2022-09-24T07:28:19.579Z,8.57
2022-09-24T07:30:46.187Z,9.60
2022-09-24T07:33:12.805Z,9.87
2022-09-24T07:35:40.071Z,12.17
2022-09-24T07:38:12.196Z,9.00
2022-09-24T07:40:39.100Z,11.73
2022-09-24T07:43:07.501Z,9.13
2022-09-24T07:45:34.324Z,9.87
2022-09-24T07:48:02.848Z,9.93
2022-09-24T07:50:39.186Z,8.73
2022-09-24T07:53:06.437Z,9.03
2022-09-24T07:55:40.555Z,11.30
2022-09-24T07:58:14.605Z,10.77
2022-09-24T08:00:41.245Z,8.73
2022-09-24T08:03:08.021Z,8.20
2022-09-24T08:05:42.847Z,9.50
2022-09-24T08:08:09.405Z,9.40
2022-09-24T08:10:35.974Z,7.97
2022-09-24T08:13:02.596Z,6.33
2022-09-24T08:15:29.296Z,5.87
2022-09-24T08:18:02.095Z,5.40
2022-09-24T08:20:29.402Z,6.57
2022-09-24T08:23:04.295Z,10.90
2022-09-24T08:25:31.752Z,5.80
2022-09-24T08:28:19.764Z,6.82
2022-09-24T08:30:49.277Z,7.90
2022-09-24T08:33:16.331Z,10.00
2022-09-24T08:35:43.338Z,7.50
2022-09-24T08:38:10.674Z,8.33
2022-09-24T08:40:39.800Z,7.67
2022-09-24T08:43:16.090Z,6.97
2022-09-24T08:46:04.750Z,6.27
2022-09-24T08:48:37.092Z,5.13
2022-09-24T08:51:11.006Z,7.30
2022-09-24T08:53:51.017Z,10.13
2022-09-24T08:56:23.417Z,5.70
2022-09-24T08:59:03.092Z,5.73
2022-09-24T09:01:42.920Z,7.87
2022-09-24T09:04:48.305Z,5.50
2022-09-24T09:07:21.362Z,6.72
2022-09-24T09:10:12.293Z,7.40
2022-09-24T09:12:44.940Z,6.57
2022-09-24T09:15:23.717Z,5.50
2022-09-24T09:17:57.875Z,7.13
2022-09-24T09:20:43.862Z,5.30
2022-09-24T09:23:19.780Z,5.73
2022-09-24T09:25:53.064Z,7.17
2022-09-24T09:28:20.169Z,6.03
2022-09-24T09:31:32.088Z,5.23
2022-09-24T09:34:24.315Z,4.63
2022-09-24T09:37:07.012Z,5.23
2022-09-24T09:39:51.746Z,4.10
2022-09-24T09:42:25.381Z,6.03
2022-09-24T09:44:52.588Z,3.97
2022-09-24T09:47:22.120Z,4.18
2022-09-24T09:49:51.964Z,3.80
2022-09-24T09:52:21.435Z,3.80
2022-09-24T09:54:49.068Z,4.30
2022-09-24T09:57:18.303Z,5.17
2022-09-24T09:59:55.480Z,4.13
2022-09-24T10:02:30.081Z,5.07
2022-09-24T10:04:59.671Z,3.50
2022-09-24T10:07:26.317Z,3.87
2022-09-24T10:10:02.500Z,4.37
2022-09-24T10:12:30.286Z,3.40
2022-09-24T10:15:03.069Z,3.83
2022-09-24T10:17:36.789Z,3.73
2022-09-24T10:20:13.367Z,3.53
2022-09-24T10:22:41.514Z,5.47
2022-09-24T10:25:19.231Z,3.90
2022-09-24T10:27:47.343Z,4.10
2022-09-24T10:30:35.055Z,5.53
2022-09-24T10:33:06.360Z,4.33
2022-09-24T10:35:36.103Z,3.80
2022-09-24T10:38:15.127Z,3.80
2022-09-24T10:40:41.972Z,4.10
2022-09-24T10:43:19.852Z,4.40
2022-09-24T10:46:13.305Z,3.40
2022-09-24T10:48:56.272Z,3.53
2022-09-24T10:51:38.294Z,3.93
2022-09-24T10:54:57.066Z,3.60
2022-09-24T10:57:52.993Z,5.17
2022-09-24T11:00:32.692Z,4.77
2022-09-24T11:03:29.061Z,4.87
2022-09-24T11:06:33.071Z,3.60
2022-09-24T11:09:21.690Z,3.43
2022-09-24T11:11:55.401Z,4.17
2022-09-24T11:14:55.634Z,5.30
2022-09-24T11:17:26.361Z,3.17
2022-09-24T11:19:56.473Z,4.40
2022-09-24T11:22:34.882Z,4.07
2022-09-24T11:25:20.535Z,3.50
2022-09-24T11:27:56.945Z,4.47
2022-09-24T11:30:31.954Z,4.33
2022-09-24T11:33:23.175Z,3.40
2022-09-24T11:36:16.019Z,3.10
2022-09-24T11:39:13.437Z,3.73
2022-09-24T11:41:49.728Z,3.27
2022-09-24T11:44:27.174Z,3.38
2022-09-24T11:47:17.407Z,3.20
2022-09-24T11:50:05.538Z,3.27
2022-09-24T11:52:32.250Z,3.30
2022-09-24T11:55:22.420Z,3.90
2022-09-24T11:58:01.552Z,5.60
2022-09-24T12:00:36.367Z,3.90
2022-09-24T12:03:12.705Z,5.37
2022-09-24T12:05:46.810Z,2.87
2022-09-24T12:08:21.174Z,4.13
2022-09-24T12:11:01.553Z,3.47
2022-09-24T12:13:42.226Z,3.40
2022-09-24T12:16:14.213Z,3.50
2022-09-24T12:18:49.695Z,3.38
2022-09-24T12:21:28.245Z,3.60
2022-09-24T12:24:03.058Z,3.37
2022-09-24T12:26:31.250Z,4.03
2022-09-24T12:29:52.176Z,3.30
2022-09-24T12:32:41.086Z,3.73
2022-09-24T12:35:23.090Z,5.43
2022-09-24T12:37:57.961Z,5.90
2022-09-24T12:40:53.730Z,4.67
2022-09-24T12:43:37.629Z,5.87
2022-09-24T12:46:08.731Z,4.50
2022-09-24T12:48:38.595Z,4.53
2022-09-24T12:51:10.151Z,5.93
2022-09-24T12:53:40.072Z,5.07
2022-09-24T12:56:09.673Z,5.80
2022-09-24T12:58:42.592Z,5.68
2022-09-24T13:01:14.161Z,6.00
2022-09-24T13:03:46.873Z,5.40
2022-09-24T13:06:35.885Z,4.40
2022-09-24T13:09:04.527Z,4.17
2022-09-24T13:11:37.407Z,4.93
2022-09-24T13:14:29.509Z,4.80
2022-09-24T13:16:56.762Z,4.47
2022-09-24T13:19:27.506Z,4.53
2022-09-24T13:21:56.832Z,4.80
2022-09-24T13:24:31.291Z,5.17
2022-09-24T13:27:21.788Z,6.67
2022-09-24T13:30:02.122Z,6.50
2022-09-24T13:32:32.420Z,6.18
2022-09-24T13:34:59.870Z,6.63
2022-09-24T13:37:38.051Z,6.67
2022-09-24T13:40:16.752Z,6.90
2022-09-24T13:42:52.618Z,6.57
2022-09-24T13:45:22.433Z,7.07
2022-09-24T13:47:58.872Z,6.73
2022-09-24T13:50:30.200Z,6.17
2022-09-24T13:53:01.949Z,7.67
2022-09-24T13:55:33.065Z,6.30
2022-09-24T13:57:59.837Z,6.17
2022-09-24T14:00:28.369Z,6.27
2022-09-24T14:03:03.359Z,6.03
2022-09-24T14:05:39.282Z,7.10
2022-09-24T14:08:11.748Z,6.67
2022-09-24T14:10:40.041Z,6.83
2022-09-24T14:13:12.175Z,7.20
2022-09-24T14:15:38.793Z,8.87
2022-09-24T14:18:10.630Z,7.60
2022-09-24T14:20:39.523Z,6.03
2022-09-24T14:23:06.383Z,6.53
2022-09-24T14:25:36.318Z,6.23
2022-09-24T14:28:05.298Z,6.40
2022-09-24T14:30:35.727Z,7.33
2022-09-24T14:33:12.375Z,7.57
2022-09-24T14:35:39.977Z,6.90
2022-09-24T14:38:09.800Z,8.30
2022-09-24T14:40:46.027Z,7.10
2022-09-24T14:43:31.268Z,6.10
2022-09-24T14:46:16.231Z,6.30
2022-09-24T14:48:44.036Z,6.00
2022-09-24T14:51:25.825Z,7.10
2022-09-24T14:54:04.345Z,6.17
2022-09-24T14:56:34.877Z,6.47
2022-09-24T14:59:01.614Z,5.87
2022-09-24T15:01:32.961Z,5.83
2022-09-24T15:04:05.452Z,6.37
2022-09-24T15:06:36.759Z,6.57
2022-09-24T15:09:15.623Z,7.17
2022-09-24T15:11:43.820Z,7.03
2022-09-24T15:14:16.832Z,6.97
2022-09-24T15:16:46.959Z,7.37
2022-09-24T15:19:22.027Z,6.80
2022-09-24T15:21:53.486Z,8.27
2022-09-24T15:24:20.568Z,8.50
2022-09-24T15:26:58.769Z,8.77
2022-09-24T15:29:25.937Z,8.30
2022-09-24T15:31:54.551Z,8.10
2022-09-24T15:34:21.167Z,8.57
2022-09-24T15:36:55.212Z,8.87
2022-09-24T15:39:23.242Z,8.43
2022-09-24T15:41:49.867Z,8.97
2022-09-24T15:44:31.244Z,9.57
2022-09-24T15:47:00.396Z,9.17
2022-09-24T15:49:27.304Z,9.50
2022-09-24T15:52:07.815Z,9.13
2022-09-24T15:54:34.645Z,10.00
2022-09-24T15:57:01.221Z,9.20
2022-09-24T15:59:28.311Z,9.63
2022-09-24T16:01:59.121Z,8.47
2022-09-24T16:04:25.767Z,9.00
2022-09-24T16:06:52.285Z,9.80
2022-09-24T16:09:18.843Z,9.23
2022-09-24T16:11:46.697Z,9.90
2022-09-24T16:14:13.246Z,9.20
2022-09-24T16:16:40.360Z,9.50
2022-09-24T16:19:08.319Z,9.80
2022-09-24T16:21:35.291Z,10.53
2022-09-24T16:24:03.112Z,10.00
2022-09-24T16:26:29.763Z,13.73
2022-09-24T16:28:56.771Z,10.83
2022-09-24T16:31:23.758Z,11.13
2022-09-24T16:33:50.467Z,10.83
2022-09-24T16:36:17.143Z,11.20
2022-09-24T16:38:43.770Z,10.73
2022-09-24T16:41:10.748Z,11.50
2022-09-24T16:43:37.561Z,11.03
2022-09-24T16:46:06.746Z,12.80
2022-09-24T16:48:33.758Z,12.37
2022-09-24T16:51:08.635Z,10.90
2022-09-24T16:53:35.699Z,11.60
2022-09-24T16:56:08.282Z,11.87
2022-09-24T16:58:36.700Z,13.07
2022-09-24T17:01:08.022Z,14.80
2022-09-24T17:03:35.009Z,13.20
2022-09-24T17:06:02.144Z,14.20
2022-09-24T17:08:49.444Z,14.17
2022-09-24T17:11:18.727Z,13.37
2022-09-24T17:13:47.404Z,13.97
2022-09-24T17:16:15.385Z,14.00
2022-09-24T17:18:42.439Z,14.00
2022-09-24T17:21:11.201Z,16.90
2022-09-24T17:23:38.267Z,18.10
2022-09-24T17:26:06.645Z,16.93
2022-09-24T17:28:34.124Z,17.63
2022-09-24T17:31:01.140Z,16.57
2022-09-24T17:33:42.970Z,17.80
2022-09-24T17:36:12.295Z,15.13
2022-09-24T17:38:39.325Z,19.50
2022-09-24T17:41:07.726Z,19.90
2022-09-24T17:43:34.912Z,15.27
2022-09-24T17:46:11.375Z,17.70
2022-09-24T17:48:42.221Z,15.47
2022-09-24T17:51:11.308Z,16.43
2022-09-24T17:54:02.750Z,15.17
2022-09-24T17:56:38.896Z,14.23
2022-09-24T17:59:17.460Z,14.90
2022-09-24T18:01:51.827Z,15.33
2022-09-24T18:04:30.966Z,16.30
2022-09-24T18:07:03.325Z,17.93
2022-09-24T18:09:36.171Z,17.13
2022-09-24T18:12:11.272Z,17.87
2022-09-24T18:14:45.860Z,16.43
2022-09-24T18:17:18.207Z,17.00
2022-09-24T18:19:50.527Z,18.73
2022-09-24T18:22:22.997Z,18.73
2022-09-24T18:24:56.124Z,19.50
2022-09-24T18:27:28.822Z,17.63
2022-09-24T18:30:03.463Z,20.97
2022-09-24T18:32:36.952Z,20.33
2022-09-24T18:35:09.201Z,20.27
2022-09-24T18:37:39.958Z,20.17
2022-09-24T18:40:13.102Z,20.50
2022-09-24T18:42:43.370Z,18.77
2022-09-24T18:45:13.881Z,20.97
2022-09-24T18:47:44.031Z,18.17
2022-09-24T18:50:14.247Z,18.00
2022-09-24T18:52:44.415Z,19.37
2022-09-24T18:55:14.595Z,19.23
2022-09-24T18:57:44.823Z,20.67
2022-09-24T19:00:34.075Z,22.27
2022-09-24T19:03:01.160Z,19.77
2022-09-24T19:05:28.725Z,16.50
2022-09-24T19:07:55.725Z,14.50
2022-09-24T19:10:38.444Z,13.80
2022-09-24T19:13:23.908Z,14.87
2022-09-24T19:16:04.950Z,21.43
2022-09-24T19:18:49.686Z,25.93
2022-09-24T19:21:32.783Z,29.50
2022-09-24T19:24:15.927Z,29.20
2022-09-24T19:27:00.745Z,21.20
2022-09-24T19:29:43.066Z,24.53
2022-09-24T19:32:23.852Z,29.50
2022-09-24T19:35:07.118Z,25.50
2022-09-24T19:37:52.016Z,22.77
2022-09-24T19:40:34.764Z,22.13
2022-09-24T19:43:17.524Z,18.97
2022-09-24T19:46:00.331Z,20.47
2022-09-24T19:48:41.677Z,24.00
2022-09-24T19:51:27.012Z,22.87
2022-09-24T19:54:03.290Z,21.20
2022-09-24T19:56:54.649Z,20.43
2022-09-24T19:59:35.504Z,17.83
2022-09-24T20:02:14.378Z,19.93
2022-09-24T20:04:57.148Z,23.23
2022-09-24T20:07:41.886Z,23.77
2022-09-24T20:10:25.183Z,24.97
2022-09-24T20:13:10.113Z,22.10
2022-09-24T20:15:56.783Z,29.77
2022-09-24T20:18:37.509Z,22.93
2022-09-24T20:21:21.127Z,24.00
2022-09-24T20:24:04.643Z,21.30
2022-09-24T20:27:04.340Z,20.90
2022-09-24T20:29:47.987Z,21.30
2022-09-24T20:32:30.123Z,22.17
2022-09-24T20:35:11.062Z,20.97
2022-09-24T20:37:53.919Z,19.30
2022-09-24T20:40:36.737Z,18.83
2022-09-24T20:43:18.293Z,18.90
2022-09-24T20:46:00.140Z,18.27
2022-09-24T20:48:43.290Z,19.20
2022-09-24T20:51:23.244Z,16.20
2022-09-24T20:54:04.167Z,20.10
2022-09-24T20:56:46.925Z,17.10
2022-09-24T20:59:27.400Z,17.53
2022-09-24T21:02:08.709Z,18.60
2022-09-24T21:04:47.297Z,17.67
2022-09-24T21:07:25.677Z,16.67
2022-09-24T21:10:04.233Z,18.93
2022-09-24T21:12:50.184Z,21.27
2022-09-24T21:15:33.637Z,18.67
2022-09-24T21:18:23.384Z,18.97
2022-09-24T21:21:05.442Z,18.03
2022-09-24T21:23:48.524Z,19.77
2022-09-24T21:26:27.386Z,20.03
2022-09-24T21:29:09.860Z,22.50
2022-09-24T21:31:53.167Z,20.77
2022-09-24T21:34:32.150Z,18.00
2022-09-24T21:37:13.206Z,20.37
2022-09-24T21:39:51.576Z,20.27
2022-09-24T21:42:29.952Z,21.20
2022-09-24T21:45:08.320Z,21.17
2022-09-24T21:47:46.790Z,25.57
2022-09-24T21:50:28.111Z,22.90
2022-09-24T21:53:06.781Z,23.70
2022-09-24T21:55:45.272Z,21.63
2022-09-24T21:58:23.670Z,24.17
2022-09-24T22:01:04.993Z,23.47
2022-09-24T22:03:45.380Z,23.00
2022-09-24T22:06:26.999Z,23.03
2022-09-24T22:08:57.872Z,24.13
2022-09-24T22:11:28.372Z,18.53
2022-09-24T22:14:00.932Z,17.50
2022-09-24T22:16:32.120Z,16.67
2022-09-24T22:19:03.430Z,16.37
2022-09-24T22:21:34.026Z,15.00
2022-09-24T22:24:04.247Z,16.80
2022-09-24T22:26:34.492Z,18.13
2022-09-24T22:29:04.961Z,17.00
2022-09-24T22:31:35.798Z,16.40
2022-09-24T22:34:24.576Z,18.03
2022-09-24T22:36:54.737Z,17.10
2022-09-24T22:39:24.981Z,17.53
2022-09-24T22:41:55.155Z,17.80
2022-09-24T22:44:25.303Z,19.88
2022-09-24T22:46:55.513Z,18.50
2022-09-24T22:49:25.759Z,16.40
2022-09-24T22:51:56.240Z,17.87
2022-09-24T22:54:26.400Z,16.60
2022-09-24T22:56:56.579Z,15.90
2022-09-24T22:59:26.773Z,15.40
2022-09-24T23:01:56.967Z,15.37
2022-09-24T23:04:27.134Z,16.00
2022-09-24T23:06:57.301Z,14.93
2022-09-24T23:09:27.549Z,15.87
2022-09-24T23:11:57.848Z,15.50
2022-09-24T23:14:27.999Z,14.97
2022-09-24T23:16:58.575Z,14.90
2022-09-24T23:19:47.690Z,16.17
2022-09-24T23:22:15.213Z,16.20
2022-09-24T23:24:42.198Z,18.83
2022-09-24T23:27:09.159Z,17.67
2022-09-24T23:29:36.114Z,15.00
2022-09-24T23:32:03.192Z,15.50
2022-09-24T23:34:30.159Z,15.37
2022-09-24T23:36:57.256Z,14.33
2022-09-24T23:39:24.242Z,15.83
2022-09-24T23:41:51.203Z,14.53
2022-09-24T23:44:18.175Z,15.23
2022-09-24T23:46:45.227Z,14.93
2022-09-24T23:49:12.240Z,16.63
2022-09-24T23:51:39.249Z,15.93
2022-09-24T23:54:06.411Z,15.27
2022-09-24T23:56:33.863Z,19.33
2022-09-24T23:59:00.844Z,19.55
